CST,Max TemperatureF,Mean TemperatureF,Min TemperatureF,Max Dew PointF,MeanDew PointF,Min DewpointF,Max Humidity, Mean Humidity, Min Humidity, Max Sea Level PressureIn, Mean Sea Level PressureIn, Min Sea Level PressureIn, Max VisibilityMiles, Mean VisibilityMiles, Min VisibilityMiles, Max Wind SpeedMPH, Mean Wind SpeedMPH, Max Gust SpeedMPH,PrecipitationIn, CloudCover, Events, WindDirDegrees
2013-11-1,55,48,40,45,42,39,93,76,59,29.83,29.69,29.59,10,10,10,17,10,22,0.00,5,,256
2013-11-2,52,43,34,41,37,32,89,70,50,30.18,30.00,29.82,10,10,7,22,8,26,0.00,4,,299
2013-11-3,55,42,29,37,32,26,89,65,41,30.33,30.26,30.19,10,10,4,14,6,18,0.00,0,,148
2013-11-4,58,50,42,42,39,34,71,61,51,30.25,30.22,30.16,10,10,10,23,13,30,0.00,3,,169
2013-11-5,60,56,51,49,47,43,89,76,62,30.32,30.22,30.03,10,9,3,21,12,30,0.06,8,Rain,176
2013-11-6,60,49,37,55,45,30,93,77,60,30.24,30.04,29.91,10,10,4,24,14,35,0.27,6,Rain,250
2013-11-7,52,42,31,35,29,26,85,64,42,30.36,30.30,30.25,10,10,10,23,9,29,0.00,1,,274
2013-11-8,53,41,28,31,29,26,92,67,41,30.38,30.26,30.09,10,10,10,21,9,29,0.00,0,,190
2013-11-9,65,55,44,40,35,31,70,52,34,30.22,30.08,30.02,10,10,10,23,13,28,0.00,0,,249
2013-11-10,50,42,34,34,30,28,82,64,46,30.43,30.34,30.24,10,10,7,16,6,21,0.00,0,,285
2013-11-11,54,41,28,42,37,31,83,73,63,30.50,30.29,30.14,10,7,1,26,13,33,0.08,8,Rain-Snow,337
2013-11-12,34,28,21,27,23,18,100,86,72,30.76,30.69,30.53,10,10,10,20,12,28,0.00,1,,328
2013-11-13,41,29,17,28,20,15,92,68,44,30.69,30.53,30.30,10,10,10,20,11,25,0.00,0,,213
2013-11-14,54,42,30,27,22,20,63,45,26,30.29,30.16,30.06,10,10,10,25,16,31,0.00,0,,203
2013-11-15,53,46,39,41,32,26,83,66,49,30.07,30.03,29.98,10,10,10,17,11,24,0.00,4,,191
2013-11-16,65,56,46,58,51,42,89,76,63,29.96,29.82,29.64,10,9,2,29,17,40,0.07,7,Rain,180
2013-11-17,73,60,47,63,55,39,90,67,44,29.91,29.57,29.28,10,10,10,44,20,60,0.10,5,Rain,216
2013-11-18,51,44,36,39,31,26,76,59,41,30.30,30.13,29.93,10,10,10,24,13,30,0.00,0,,292
2013-11-19,45,34,23,28,26,21,88,71,53,30.38,30.33,30.27,10,10,10,13,7,15,0.00,0,,81
2013-11-20,46,37,27,39,31,24,85,72,58,30.28,30.19,30.09,10,10,10,22,9,28,0.04,4,Rain,142
2013-11-21,49,47,45,49,45,39,100,86,71,30.21,30.16,30.13,10,6,2,16,7,21,0.31,8,Rain,197
2013-11-22,48,40,31,48,37,26,100,85,70,30.53,30.38,30.19,10,7,2,21,11,29,0.14,7,Rain,345
2013-11-23,31,24,16,26,15,8,85,70,55,30.74,30.62,30.51,10,10,10,24,13,31,0.00,3,,331
2013-11-24,28,20,11,11,7,2,76,55,33,30.79,30.66,30.48,10,10,10,13,6,18,0.00,0,,305
2013-11-25,34,29,24,22,17,12,63,57,51,30.45,30.28,30.19,10,10,10,20,12,23,0.00,6,,210
2013-11-26,37,29,20,26,20,8,78,64,50,30.20,30.13,30.06,10,10,10,23,11,32,0.00,7,,295
2013-11-27,28,21,14,11,7,5,74,57,39,30.33,30.29,30.20,10,10,10,21,11,26,0.00,0,,303
2013-11-28,41,28,15,19,15,10,74,57,40,30.53,30.35,30.25,10,10,10,20,10,25,0.00,0,,248
2013-11-29,41,27,12,22,17,11,80,60,40,30.64,30.55,30.42,10,10,10,13,6,15,0.00,0,,128
2013-11-30,53,41,29,30,27,22,75,58,41,30.41,30.24,30.12,10,10,10,18,10,22,0.00,0,,193